Time;durP1;ratioP1;P1;durP2;ratioP2;P2;SDS_P1;SDS_P2;PMS_P1;PMS_P2;Temp;Humidity;BMP_temperature;BMP_pressure;BME280_temperature;BME280_humidity;BME280_pressure;Samples;Min_cycle;Max_cycle;Signal;HPM_P1;HPM_P2
2024/03/18 00:01:20;;;;;;;18.23;12.23;;;9.70;1.00;;;;;;5078567;28;20944;-64
2024/03/18 00:03:47;;;;;;;17.00;12.53;;;9.60;1.00;;;;;;5078009;28;20584;-63
2024/03/18 00:06:14;;;;;;;12.43;10.80;;;9.60;1.00;;;;;;5060233;28;20454;-63
2024/03/18 00:08:43;;;;;;;14.87;11.33;;;9.60;1.00;;;;;;5058487;28;20875;-63
2024/03/18 00:11:11;;;;;;;20.63;12.30;;;9.70;1.00;;;;;;5058023;28;20744;-63
2024/03/18 00:13:39;;;;;;;16.17;11.77;;;9.70;1.00;;;;;;5057531;28;20458;-63
2024/03/18 00:16:07;;;;;;;13.43;10.63;;;9.60;1.00;;;;;;5058253;28;20767;-63
2024/03/18 00:18:35;;;;;;;12.73;11.00;;;9.70;1.00;;;;;;5057711;28;20458;-63
2024/03/18 00:21:02;;;;;;;14.83;11.37;;;9.60;1.00;;;;;;5058206;28;20482;-63
2024/03/18 00:23:30;;;;;;;19.10;12.17;;;9.60;1.00;;;;;;5057473;28;20494;-62
2024/03/18 00:26:00;;;;;;;16.47;12.13;;;9.60;1.00;;;;;;5057434;28;20466;-63
2024/03/18 00:28:31;;;;;;;14.53;12.00;;;9.60;1.00;;;;;;5057615;28;20474;-62
2024/03/18 00:30:58;;;;;;;13.97;11.10;;;9.70;1.00;;;;;;5057980;28;20880;-63
2024/03/18 00:33:25;;;;;;;12.70;10.77;;;9.70;1.00;;;;;;5057576;28;20802;-62
2024/03/18 00:35:56;;;;;;;15.30;11.37;;;9.70;1.00;;;;;;5056987;28;20458;-62
2024/03/18 00:38:24;;;;;;;12.10;10.23;;;9.70;1.00;;;;;;5057172;28;20465;-63
2024/03/18 00:41:44;;;;;;;16.13;11.87;;;9.70;1.00;;;;;;5057723;28;20466;-62
2024/03/18 00:43:39;;;;;;;14.30;11.43;;;9.70;1.00;;;;;;5057275;28;20870;-62
2024/03/18 00:46:06;;;;;;;14.30;11.17;;;9.70;1.00;;;;;;5057267;28;20462;-62
2024/03/18 00:48:34;;;;;;;17.47;12.60;;;9.60;1.00;;;;;;5057194;28;20458;-62
2024/03/18 00:51:01;;;;;;;14.80;12.57;;;9.50;23.00;;;;;;5057612;28;20561;-62
2024/03/18 00:53:29;;;;;;;14.37;12.23;;;9.50;90.50;;;;;;5056974;28;20450;-62
2024/03/18 00:55:56;;;;;;;17.40;12.53;;;9.50;91.80;;;;;;5057071;28;20516;-62
2024/03/18 00:58:23;;;;;;;15.13;13.50;;;9.50;99.90;;;;;;5057331;28;20552;-62
2024/03/18 01:00:52;;;;;;;16.20;13.27;;;9.40;99.90;;;;;;5057197;28;20458;-62
2024/03/18 01:03:19;;;;;;;14.40;12.87;;;9.40;99.90;;;;;;5057323;28;20496;-62
2024/03/18 01:05:46;;;;;;;13.23;11.83;;;9.40;99.90;;;;;;5057118;28;20493;-62
2024/03/18 01:08:14;;;;;;;17.00;14.60;;;9.40;99.90;;;;;;5056793;28;20896;-62
2024/03/18 01:10:41;;;;;;;15.30;13.03;;;9.30;99.90;;;;;;5057285;28;20524;-64
2024/03/18 01:13:11;;;;;;;17.60;14.40;;;9.30;99.90;;;;;;5057159;28;20497;-63
2024/03/18 01:15:39;;;;;;;17.57;14.80;;;9.30;99.90;;;;;;5056754;28;20504;-65
2024/03/18 01:18:07;;;;;;;17.43;14.60;;;9.30;99.90;;;;;;5057023;28;20504;-65
2024/03/18 01:20:38;;;;;;;17.00;14.70;;;9.30;99.90;;;;;;5057230;28;20458;-65
2024/03/18 01:23:05;;;;;;;17.13;14.43;;;9.20;99.90;;;;;;5057123;28;20486;-65
2024/03/18 01:25:34;;;;;;;16.80;13.23;;;9.20;99.90;;;;;;5057052;28;20439;-65
2024/03/18 01:28:01;;;;;;;18.20;15.40;;;9.20;99.90;;;;;;5059795;28;20490;-69
2024/03/18 01:30:29;;;;;;;20.27;13.57;;;9.20;14.80;;;;;;5062786;28;20458;-71
2024/03/18 01:32:56;;;;;;;16.60;12.50;;;9.20;15.80;;;;;;5059547;28;20459;-70
2024/03/18 01:35:25;;;;;;;15.80;13.53;;;9.10;32.50;;;;;;5057456;28;20498;-68
2024/03/18 01:37:53;;;;;;;16.90;13.97;;;9.10;99.90;;;;;;5057151;28;20444;-70
2024/03/18 01:40:20;;;;;;;16.07;13.13;;;9.10;99.90;;;;;;5057073;28;20512;-68
2024/03/18 01:42:47;;;;;;;20.70;14.33;;;9.10;99.90;;;;;;5057243;28;20545;-70
2024/03/18 01:45:22;;;;;;;15.90;13.20;;;9.10;99.90;;;;;;5056977;28;20516;-71
2024/03/18 01:47:50;;;;;;;15.47;13.00;;;9.10;99.90;;;;;;5057539;28;20468;-69
2024/03/18 01:50:18;;;;;;;14.40;12.50;;;9.10;1.00;;;;;;5056536;28;20545;-68
2024/03/18 01:52:47;;;;;;;17.83;13.80;;;9.20;1.00;;;;;;5056928;28;20504;-68
2024/03/18 01:55:14;;;;;;;14.70;12.07;;;9.20;99.90;;;;;;5056901;28;20556;-68
2024/03/18 01:57:43;;;;;;;14.60;12.67;;;9.10;96.30;;;;;;5056456;28;20783;-68
2024/03/18 02:00:15;;;;;;;16.60;12.80;;;9.10;40.20;;;;;;5060079;28;20465;-67
2024/03/18 02:02:42;;;;;;;14.23;11.23;;;9.10;1.00;;;;;;5060286;28;20593;-70
2024/03/18 02:05:10;;;;;;;14.27;12.67;;;9.00;1.00;;;;;;5060478;28;20493;-69
2024/03/18 02:07:38;;;;;;;16.33;13.37;;;9.00;4.70;;;;;;5060695;28;20462;-70
2024/03/18 02:10:09;;;;;;;13.43;12.03;;;9.00;99.90;;;;;;5080120;28;20834;-70
2024/03/18 02:12:36;;;;;;;15.37;11.73;;;9.00;1.00;;;;;;5080632;28;20772;-70
2024/03/18 02:15:04;;;;;;;13.60;10.97;;;9.10;99.90;;;;;;5080645;28;20514;-70
2024/03/18 02:17:31;;;;;;;14.43;10.90;;;9.10;99.90;;;;;;5079902;28;20472;-71
2024/03/18 02:19:59;;;;;;;13.50;11.10;;;9.10;99.90;;;;;;5079917;28;20462;-72
2024/03/18 02:22:28;;;;;;;14.10;12.17;;;9.10;99.90;;;;;;5079806;28;20461;-71
2024/03/18 02:24:55;;;;;;;12.53;10.57;;;9.10;1.00;;;;;;5080146;28;20485;-72
2024/03/18 02:27:22;;;;;;;12.33;10.20;;;9.10;1.00;;;;;;5079833;28;20481;-72
2024/03/18 02:29:49;;;;;;;12.17;9.60;;;9.00;99.90;;;;;;5079858;28;20514;-69
2024/03/18 02:32:17;;;;;;;11.03;9.90;;;9.10;99.90;;;;;;5079780;28;20488;-68
2024/03/18 02:34:44;;;;;;;12.97;11.33;;;9.10;99.90;;;;;;5080023;28;20552;-67
2024/03/18 02:37:11;;;;;;;13.60;10.47;;;9.10;1.00;;;;;;5079743;28;20495;-68
2024/03/18 02:39:40;;;;;;;13.60;9.03;;;9.10;1.00;;;;;;5079540;28;20890;-69
2024/03/18 02:42:07;;;;;;;12.43;10.67;;;9.10;1.00;;;;;;5079370;28;20511;-68
2024/03/18 02:44:36;;;;;;;12.50;9.73;;;9.10;1.00;;;;;;5079750;28;20503;-68
2024/03/18 02:47:04;;;;;;;12.70;10.27;;;9.10;1.00;;;;;;5079905;28;20514;-68
2024/03/18 02:49:31;;;;;;;11.47;10.27;;;9.10;99.90;;;;;;5079342;28;20642;-69
2024/03/18 02:51:58;;;;;;;11.00;9.50;;;9.00;99.90;;;;;;5079178;28;20468;-69
2024/03/18 02:54:26;;;;;;;11.13;9.43;;;9.10;99.90;;;;;;5079478;28;20480;-69
2024/03/18 02:56:54;;;;;;;10.40;9.13;;;9.00;99.90;;;;;;5079382;28;20460;-69
2024/03/18 02:59:22;;;;;;;11.50;9.40;;;9.00;1.00;;;;;;5079502;28;20454;-70
2024/03/18 03:01:49;;;;;;;11.97;8.53;;;9.10;1.00;;;;;;5079276;28;20556;-70
2024/03/18 03:04:17;;;;;;;11.13;9.07;;;9.10;95.70;;;;;;5078998;28;20489;-71
2024/03/18 03:06:44;;;;;;;12.40;9.67;;;9.10;99.90;;;;;;5079677;28;20457;-72
2024/03/18 03:09:15;;;;;;;11.27;9.07;;;9.10;99.90;;;;;;5079244;28;20461;-73
2024/03/18 03:11:42;;;;;;;10.63;9.50;;;9.00;99.90;;;;;;5078976;28;20462;-73
2024/03/18 03:14:12;;;;;;;11.97;9.23;;;9.10;1.00;;;;;;5079136;28;20458;-73
2024/03/18 03:16:39;;;;;;;11.13;9.23;;;9.10;1.00;;;;;;5079632;28;20471;-72
2024/03/18 03:19:08;;;;;;;12.23;9.90;;;9.10;1.00;;;;;;5078933;28;20472;-72
2024/03/18 03:21:36;;;;;;;12.33;9.03;;;9.10;1.00;;;;;;5079116;28;20757;-72
2024/03/18 03:24:03;;;;;;;13.10;9.43;;;9.10;1.00;;;;;;5079159;28;20555;-73
2024/03/18 03:26:31;;;;;;;10.10;8.43;;;9.10;78.80;;;;;;5078262;28;20465;-73
2024/03/18 03:28:58;;;;;;;12.33;9.40;;;9.10;1.00;;;;;;5078906;28;20555;-73
2024/03/18 03:31:26;;;;;;;10.70;9.60;;;9.10;99.90;;;;;;5078217;28;20489;-73
2024/03/18 03:33:54;;;;;;;10.83;9.40;;;9.20;1.00;;;;;;5078955;28;20457;-73
2024/03/18 03:36:21;;;;;;;10.33;9.23;;;9.10;1.00;;;;;;5078843;28;20497;-73
2024/03/18 03:38:48;;;;;;;9.97;8.50;;;9.10;56.30;;;;;;5078900;28;20544;-72
2024/03/18 03:41:15;;;;;;;10.70;9.10;;;9.10;75.20;;;;;;5078838;28;20472;-71
2024/03/18 03:43:43;;;;;;;10.20;9.10;;;9.20;99.90;;;;;;5078052;28;20472;-73
2024/03/18 03:46:10;;;;;;;11.37;9.67;;;9.10;26.60;;;;;;5078782;28;20465;-73
2024/03/18 03:48:39;;;;;;;10.70;8.97;;;9.20;99.90;;;;;;5078302;28;20464;-74
2024/03/18 03:51:06;;;;;;;11.80;9.20;;;9.20;46.60;;;;;;5078436;28;20462;-73
2024/03/18 03:53:33;;;;;;;11.03;9.50;;;9.10;92.20;;;;;;5078199;28;20449;-72
2024/03/18 03:56:01;;;;;;;12.20;10.20;;;9.20;99.90;;;;;;5078319;28;20899;-71
2024/03/18 03:58:30;;;;;;;10.40;8.63;;;9.20;99.90;;;;;;5078643;28;20468;-70
2024/03/18 04:00:57;;;;;;;12.97;10.67;;;9.20;99.90;;;;;;5078596;28;20711;-72
2024/03/18 04:03:26;;;;;;;10.27;9.23;;;9.20;99.90;;;;;;5078235;28;20934;-71
2024/03/18 04:05:55;;;;;;;11.40;9.83;;;9.20;99.90;;;;;;5078216;28;20462;-74
2024/03/18 04:08:22;;;;;;;11.77;10.20;;;9.20;99.90;;;;;;5077887;28;20552;-73
2024/03/18 04:10:50;;;;;;;10.70;9.60;;;9.20;99.90;;;;;;5078380;28;20746;-73
2024/03/18 04:13:19;;;;;;;15.77;11.10;;;9.20;99.90;;;;;;5078354;28;20811;-72
2024/03/18 04:15:47;;;;;;;13.93;10.43;;;9.20;99.90;;;;;;5078155;28;20457;-73
2024/03/18 04:18:14;;;;;;;12.10;10.70;;;9.20;99.90;;;;;;5077833;28;20461;-73
2024/03/18 04:20:41;;;;;;;10.57;9.43;;;9.20;1.00;;;;;;5078012;28;20489;-72
2024/03/18 04:23:10;;;;;;;13.20;11.73;;;9.20;99.90;;;;;;5077774;28;20489;-72
2024/03/18 04:25:38;;;;;;;14.37;11.50;;;9.20;1.00;;;;;;5077790;28;20500;-72
2024/03/18 04:28:07;;;;;;;12.50;10.30;;;9.20;1.00;;;;;;5077688;28;20485;-71
2024/03/18 04:30:36;;;;;;;12.57;10.90;;;9.20;99.90;;;;;;5077741;28;20471;-71
2024/03/18 04:33:06;;;;;;;13.47;11.30;;;9.20;1.00;;;;;;5078499;28;20484;-73
2024/03/18 04:35:34;;;;;;;12.40;10.43;;;9.10;1.00;;;;;;5079381;28;20471;-71
2024/03/18 04:38:01;;;;;;;12.47;11.10;;;9.20;1.00;;;;;;5079494;28;20457;-71
2024/03/18 04:40:30;;;;;;;14.60;12.03;;;9.20;1.00;;;;;;5079031;28;20468;-71
2024/03/18 04:42:57;;;;;;;12.50;10.90;;;9.20;55.00;;;;;;5079398;28;20815;-73
2024/03/18 04:45:26;;;;;;;16.07;10.93;;;9.20;1.00;;;;;;5079833;28;20556;-70
2024/03/18 04:47:54;;;;;;;14.00;11.53;;;9.20;35.90;;;;;;5078817;28;20774;-71
2024/03/18 04:50:23;;;;;;;13.70;11.43;;;9.20;1.00;;;;;;5079404;28;20453;-71
2024/03/18 04:52:51;;;;;;;14.40;11.20;;;9.20;1.00;;;;;;5080375;28;20559;-71
2024/03/18 04:55:20;;;;;;;16.90;12.27;;;9.20;95.50;;;;;;5079756;28;20540;-70
2024/03/18 04:57:52;;;;;;;14.50;12.13;;;9.20;57.60;;;;;;5077827;28;20457;-70
2024/03/18 05:00:20;;;;;;;15.00;12.77;;;9.20;1.00;;;;;;5078741;28;20901;-70
2024/03/18 05:02:47;;;;;;;13.00;11.13;;;9.20;28.10;;;;;;5078600;28;20490;-71
2024/03/18 05:05:17;;;;;;;18.80;16.40;;;9.20;99.90;;;;;;5078144;28;20491;-71
2024/03/18 05:07:44;;;;;;;14.60;11.87;;;9.20;99.90;;;;;;5079449;28;20501;-70
2024/03/18 05:10:16;;;;;;;14.93;11.43;;;9.20;99.90;;;;;;5077975;28;20563;-70
2024/03/18 05:12:44;;;;;;;15.03;13.10;;;9.20;99.90;;;;;;5078720;28;20457;-70
2024/03/18 05:15:13;;;;;;;13.63;11.40;;;9.20;90.60;;;;;;5078670;28;20453;-70
2024/03/18 05:17:41;;;;;;;15.50;12.87;;;9.10;89.50;;;;;;5077740;28;20500;-70
2024/03/18 05:20:11;;;;;;;24.93;18.47;;;9.10;99.90;;;;;;5078352;28;20944;-70
2024/03/18 05:22:39;;;;;;;16.70;13.67;;;9.20;99.90;;;;;;5077976;28;20472;-70
2024/03/18 05:25:09;;;;;;;20.40;15.70;;;9.20;99.90;;;;;;5078240;28;20493;-70
2024/03/18 05:27:38;;;;;;;15.93;13.80;;;9.20;99.90;;;;;;5077756;28;20489;-70
2024/03/18 05:30:06;;;;;;;14.00;11.00;;;9.20;1.00;;;;;;5078031;28;20461;-69
2024/03/18 05:32:35;;;;;;;13.03;11.53;;;9.30;1.00;;;;;;5078070;28;20457;-70
2024/03/18 05:35:02;;;;;;;13.90;12.43;;;9.20;1.00;;;;;;5081248;28;20496;-70
2024/03/18 05:37:30;;;;;;;15.30;12.70;;;9.20;1.00;;;;;;5082117;28;20542;-69
2024/03/18 05:39:57;;;;;;;14.00;11.53;;;9.20;1.00;;;;;;5082219;28;20468;-69
2024/03/18 05:42:24;;;;;;;16.07;12.03;;;9.20;1.00;;;;;;5083060;28;20467;-69
2024/03/18 05:44:52;;;;;;;15.67;13.17;;;9.30;1.00;;;;;;5083238;28;20500;-69
2024/03/18 05:47:19;;;;;;;14.80;11.87;;;9.20;1.00;;;;;;5081383;28;20483;-70
2024/03/18 05:49:47;;;;;;;15.73;12.07;;;9.20;1.00;;;;;;5079894;28;20500;-69
2024/03/18 05:52:15;;;;;;;14.83;12.57;;;9.30;1.00;;;;;;5079739;28;20457;-70
2024/03/18 05:54:42;;;;;;;16.30;11.87;;;9.30;1.00;;;;;;5080565;28;20465;-70
2024/03/18 05:57:09;;;;;;;15.33;12.20;;;9.30;1.00;;;;;;5080895;28;20515;-70
2024/03/18 05:59:37;;;;;;;13.77;11.77;;;9.30;1.00;;;;;;5079485;28;20515;-70
2024/03/18 06:02:04;;;;;;;15.20;13.00;;;9.30;1.00;;;;;;5080011;28;20506;-70
2024/03/18 06:04:32;;;;;;;15.37;11.87;;;9.30;1.00;;;;;;5063533;28;20997;-70
2024/03/18 06:07:02;;;;;;;16.43;13.63;;;9.30;1.00;;;;;;5061208;28;20561;-70
2024/03/18 06:09:30;;;;;;;14.77;12.37;;;9.30;1.00;;;;;;5061457;28;20466;-70
2024/03/18 06:11:57;;;;;;;19.80;12.00;;;9.40;1.00;;;;;;5062249;28;20564;-70
2024/03/18 06:14:25;;;;;;;16.93;13.00;;;9.40;8.90;;;;;;5063192;28;20433;-70
2024/03/18 06:16:52;;;;;;;15.83;12.47;;;9.40;13.00;;;;;;5063285;28;20466;-70
2024/03/18 06:19:21;;;;;;;15.80;14.10;;;9.40;36.20;;;;;;5062838;28;20465;-70
2024/03/18 06:21:49;;;;;;;17.63;11.60;;;9.40;26.00;;;;;;5062900;28;20757;-70
2024/03/18 06:24:23;;;;;;;17.87;13.30;;;9.40;19.60;;;;;;5062562;28;20494;-70
2024/03/18 06:26:50;;;;;;;17.90;13.97;;;9.40;25.90;;;;;;5062364;28;20586;-69
2024/03/18 06:29:17;;;;;;;15.40;12.63;;;9.50;40.00;;;;;;5062370;28;20468;-69
2024/03/18 06:31:45;;;;;;;15.03;12.97;;;9.50;6.00;;;;;;5060722;28;20481;-70
2024/03/18 06:34:13;;;;;;;15.10;12.67;;;9.50;4.50;;;;;;5076326;28;20503;-70
2024/03/18 06:36:40;;;;;;;18.07;13.77;;;9.60;1.00;;;;;;5079899;28;20535;-69
2024/03/18 06:39:09;;;;;;;17.50;12.87;;;9.60;1.00;;;;;;5078871;28;20527;-69
2024/03/18 06:41:38;;;;;;;17.03;12.23;;;9.70;1.00;;;;;;5078188;28;20461;-69
2024/03/18 06:44:05;;;;;;;17.03;14.03;;;9.70;1.00;;;;;;5077548;28;20566;-69
2024/03/18 06:46:33;;;;;;;15.60;13.00;;;9.70;1.00;;;;;;5078497;28;20450;-69
2024/03/18 06:49:00;;;;;;;17.80;13.47;;;9.70;1.00;;;;;;5079426;28;20457;-69
2024/03/18 06:51:27;;;;;;;17.83;12.57;;;9.60;1.00;;;;;;5078621;28;20519;-69
2024/03/18 06:53:54;;;;;;;16.57;14.00;;;9.70;1.00;;;;;;5079564;28;20491;-69
2024/03/18 06:56:22;;;;;;;15.33;12.43;;;9.70;1.00;;;;;;5080713;28;20458;-69
2024/03/18 06:58:50;;;;;;;16.07;13.13;;;9.70;1.00;;;;;;5079659;28;20499;-67
2024/03/18 07:01:18;;;;;;;16.90;13.80;;;9.80;1.00;;;;;;5078399;28;20477;-67
2024/03/18 07:03:45;;;;;;;20.90;14.97;;;9.80;99.90;;;;;;5077134;28;20497;-67
2024/03/18 07:06:12;;;;;;;21.60;16.60;;;9.80;99.90;;;;;;5078683;28;20824;-67
2024/03/18 07:08:40;;;;;;;17.83;13.73;;;9.80;99.90;;;;;;5078749;28;20461;-67
2024/03/18 07:11:09;;;;;;;15.77;14.07;;;9.90;99.90;;;;;;5078898;28;20644;-67
2024/03/18 07:13:37;;;;;;;19.27;15.00;;;9.90;99.90;;;;;;5078103;28;20461;-67
2024/03/18 07:16:06;;;;;;;17.47;14.40;;;9.90;99.90;;;;;;5077916;28;20485;-67
2024/03/18 07:18:34;;;;;;;20.70;14.10;;;10.00;99.90;;;;;;5078413;28;20461;-67
2024/03/18 07:21:02;;;;;;;17.87;15.20;;;10.00;99.90;;;;;;5077717;28;20812;-67
2024/03/18 07:23:29;;;;;;;19.23;16.40;;;10.10;90.70;;;;;;5076447;28;20493;-66
2024/03/18 07:25:56;;;;;;;19.90;15.93;;;10.10;1.00;;;;;;5076030;28;20493;-66
2024/03/18 07:28:24;;;;;;;16.40;13.63;;;10.20;1.00;;;;;;5031458;28;1300033;-67
2024/03/18 07:30:51;;;;;;;15.50;13.87;;;10.30;1.00;;;;;;5077296;28;20207;-67
2024/03/18 07:33:20;;;;;;;16.83;13.47;;;10.30;1.00;;;;;;5077766;28;20788;-67
2024/03/18 07:35:47;;;;;;;15.37;13.40;;;10.40;99.90;;;;;;5077760;28;20497;-66
2024/03/18 07:38:15;;;;;;;15.03;13.43;;;10.40;99.90;;;;;;5079244;28;20548;-66
2024/03/18 07:40:42;;;;;;;16.20;13.33;;;10.40;99.90;;;;;;5078690;28;20469;-66
2024/03/18 07:43:11;;;;;;;16.07;14.10;;;10.50;1.00;;;;;;5078243;28;20828;-66
2024/03/18 07:45:39;;;;;;;15.60;13.10;;;10.60;1.00;;;;;;5078399;28;20492;-66
2024/03/18 07:48:08;;;;;;;17.83;14.20;;;10.60;1.00;;;;;;5078455;28;20560;-66
2024/03/18 07:50:36;;;;;;;14.83;13.33;;;10.70;1.00;;;;;;5078742;28;20468;-66
2024/03/18 07:53:05;;;;;;;14.80;13.20;;;10.70;99.90;;;;;;5078714;28;20563;-66
2024/03/18 07:55:32;;;;;;;15.27;12.60;;;10.80;99.90;;;;;;5078155;28;20536;-66
2024/03/18 07:58:00;;;;;;;15.00;12.20;;;11.00;99.90;;;;;;5078444;28;20948;-66
2024/03/18 08:00:27;;;;;;;15.80;12.43;;;11.00;62.80;;;;;;5078014;28;20457;-66
2024/03/18 08:02:55;;;;;;;13.23;11.83;;;11.10;1.00;;;;;;5078035;28;20458;-66
2024/03/18 08:05:22;;;;;;;15.60;13.40;;;11.20;99.90;;;;;;5076989;28;20836;-66
2024/03/18 08:07:52;;;;;;;14.33;11.90;;;11.30;38.90;;;;;;5076947;28;20460;-66
2024/03/18 08:10:20;;;;;;;14.17;12.57;;;11.40;1.00;;;;;;5077907;28;20457;-66
2024/03/18 08:12:47;;;;;;;14.27;12.43;;;11.70;1.00;;;;;;5077329;28;20540;-66
2024/03/18 08:15:15;;;;;;;17.20;13.37;;;11.70;44.20;;;;;;5076356;28;20871;-66
2024/03/18 08:17:43;;;;;;;15.00;12.40;;;11.70;1.00;;;;;;5078065;28;20457;-66
2024/03/18 08:20:11;;;;;;;14.63;12.43;;;11.80;99.90;;;;;;5076803;28;20758;-66
2024/03/18 08:22:39;;;;;;;13.37;11.97;;;11.80;97.30;;;;;;5076930;28;20461;-66
2024/03/18 08:25:09;;;;;;;15.73;12.23;;;11.80;1.00;;;;;;5076882;28;20489;-66
2024/03/18 08:27:37;;;;;;;17.20;12.47;;;11.70;1.00;;;;;;5076540;28;20488;-66
2024/03/18 08:30:06;;;;;;;12.17;10.80;;;11.70;1.00;;;;;;5077026;28;20465;-66
2024/03/18 08:32:32;;;;;;;14.20;12.63;;;11.70;1.00;;;;;;5077704;28;20457;-65
2024/03/18 08:35:00;;;;;;;15.43;11.90;;;11.70;1.00;;;;;;5077663;28;20445;-66
2024/03/18 08:37:27;;;;;;;13.20;11.80;;;11.80;1.00;;;;;;5076688;28;20457;-66
2024/03/18 08:39:55;;;;;;;12.40;11.13;;;11.90;1.00;;;;;;5076414;28;20776;-65
2024/03/18 08:42:24;;;;;;;15.13;12.80;;;11.90;1.00;;;;;;5076174;28;20548;-65
2024/03/18 08:44:52;;;;;;;16.50;13.23;;;12.00;1.00;;;;;;5076094;28;20798;-65
2024/03/18 08:47:21;;;;;;;15.60;14.10;;;12.10;1.00;;;;;;5076236;28;20550;-64
2024/03/18 08:49:48;;;;;;;14.07;12.57;;;12.30;1.00;;;;;;5076510;28;20464;-64
2024/03/18 08:52:15;;;;;;;19.40;11.67;;;12.40;1.00;;;;;;5076765;28;20472;-64
2024/03/18 08:54:43;;;;;;;12.83;11.30;;;12.50;1.00;;;;;;5077867;28;20500;-64
2024/03/18 08:57:10;;;;;;;14.60;12.73;;;12.60;99.90;;;;;;5077706;28;20459;-63
2024/03/18 08:59:40;;;;;;;14.10;11.57;;;12.70;99.90;;;;;;5077027;28;20556;-63
2024/03/18 09:02:08;;;;;;;13.50;12.10;;;12.70;33.90;;;;;;5077103;28;20457;-62
2024/03/18 09:04:36;;;;;;;12.83;11.57;;;13.00;2.10;;;;;;5077819;28;20489;-62
2024/03/18 09:07:03;;;;;;;12.13;10.93;;;13.00;1.00;;;;;;5077453;28;20507;-62
2024/03/18 09:09:33;;;;;;;13.10;11.90;;;13.10;1.00;;;;;;5077800;28;20464;-62
2024/03/18 09:12:02;;;;;;;12.50;11.20;;;13.10;99.90;;;;;;5077087;28;20457;-62
2024/03/18 09:14:30;;;;;;;13.17;11.77;;;13.10;99.90;;;;;;5077162;28;20496;-62
2024/03/18 09:17:01;;;;;;;12.17;10.97;;;13.10;99.90;;;;;;5077316;28;20457;-61
2024/03/18 09:19:29;;;;;;;11.70;10.60;;;13.20;99.90;;;;;;5076912;28;20461;-61
2024/03/18 09:21:56;;;;;;;12.30;11.10;;;13.10;99.90;;;;;;5077598;28;20499;-62
2024/03/18 09:24:24;;;;;;;10.50;9.40;;;13.10;99.90;;;;;;5077174;28;20457;-61
2024/03/18 09:26:51;;;;;;;11.83;10.60;;;13.00;99.90;;;;;;5077082;28;20511;-61
2024/03/18 09:29:19;;;;;;;11.40;10.30;;;12.90;99.90;;;;;;5077327;28;20811;-61
2024/03/18 09:31:47;;;;;;;12.80;11.50;;;12.90;99.90;;;;;;5076034;28;20461;-61
2024/03/18 09:34:17;;;;;;;11.13;10.00;;;12.90;99.90;;;;;;5075789;28;20819;-61
2024/03/18 09:36:44;;;;;;;12.97;11.50;;;13.10;99.90;;;;;;5076780;28;20462;-61
2024/03/18 09:39:11;;;;;;;11.97;10.83;;;13.10;99.90;;;;;;5075967;28;20886;-61
2024/03/18 09:41:41;;;;;;;12.73;11.07;;;13.20;99.90;;;;;;5075912;28;20480;-61
2024/03/18 09:44:14;;;;;;;12.60;10.97;;;13.10;39.60;;;;;;5075721;28;20461;-62
2024/03/18 09:46:42;;;;;;;12.47;10.00;;;13.30;99.90;;;;;;5076641;28;20775;-61
2024/03/18 09:49:20;;;;;;;11.53;10.40;;;13.50;99.90;;;;;;5075921;28;20468;-62
2024/03/18 09:51:48;;;;;;;11.47;10.23;;;13.50;99.90;;;;;;5076616;28;20875;-62
2024/03/18 09:54:17;;;;;;;12.70;10.57;;;13.70;1.00;;;;;;5076993;28;20457;-62
2024/03/18 09:56:46;;;;;;;10.73;9.63;;;14.00;1.00;;;;;;5077622;28;20499;-62
2024/03/18 09:59:14;;;;;;;12.53;11.23;;;14.20;99.90;;;;;;5077017;28;20457;-62
2024/03/18 10:01:41;;;;;;;13.77;12.47;;;14.20;99.90;;;;;;5075876;28;20453;-62
2024/03/18 10:04:09;;;;;;;12.63;11.43;;;14.10;99.90;;;;;;5076620;28;20768;-62
2024/03/18 10:06:39;;;;;;;12.60;11.30;;;13.90;99.90;;;;;;5059670;28;20930;-63
2024/03/18 10:09:07;;;;;;;12.53;11.20;;;14.00;99.90;;;;;;5058530;28;20466;-63
2024/03/18 10:11:35;;;;;;;13.43;11.90;;;14.00;99.90;;;;;;5064354;28;20879;-63
2024/03/18 10:14:03;;;;;;;14.07;10.70;;;13.80;99.90;;;;;;5079414;28;20467;-62
2024/03/18 10:16:30;;;;;;;11.60;10.50;;;13.70;99.90;;;;;;5079259;28;20453;-63
2024/03/18 10:18:57;;;;;;;12.13;9.03;;;13.70;99.90;;;;;;5080736;28;20464;-63
2024/03/18 10:21:27;;;;;;;11.33;10.23;;;13.60;99.90;;;;;;5084212;28;20457;-63
2024/03/18 10:23:56;;;;;;;14.77;11.33;;;13.50;99.90;;;;;;5083122;28;20743;-63
2024/03/18 10:26:24;;;;;;;10.43;8.90;;;13.40;99.90;;;;;;5083400;28;20488;-63
2024/03/18 10:28:51;;;;;;;12.53;9.80;;;13.40;99.90;;;;;;5085463;28;20496;-63
2024/03/18 10:31:19;;;;;;;12.50;9.20;;;13.70;99.90;;;;;;5084606;28;20907;-63
2024/03/18 10:33:48;;;;;;;12.10;9.30;;;13.90;99.90;;;;;;5084336;28;20532;-63
2024/03/18 10:36:17;;;;;;;11.03;9.30;;;14.20;99.90;;;;;;5083326;28;20493;-63
2024/03/18 10:38:50;;;;;;;10.83;9.57;;;14.10;1.00;;;;;;5082827;28;20488;-63
2024/03/18 10:41:21;;;;;;;10.97;9.37;;;13.90;1.00;;;;;;5083800;28;20442;-65
2024/03/18 10:43:53;;;;;;;9.33;8.33;;;13.90;1.00;;;;;;5083809;28;21000;-64
2024/03/18 10:46:21;;;;;;;9.37;8.23;;;13.90;1.00;;;;;;5084111;28;20496;-63
2024/03/18 10:48:50;;;;;;;9.47;7.93;;;13.90;1.00;;;;;;5083163;28;20461;-63
2024/03/18 10:51:18;;;;;;;11.10;7.40;;;14.10;1.00;;;;;;5081627;28;20458;-63
2024/03/18 10:53:46;;;;;;;12.03;7.00;;;14.20;1.00;;;;;;5082022;28;20453;-63
2024/03/18 10:56:14;;;;;;;11.80;6.90;;;14.50;1.00;;;;;;5083404;28;20460;-63
2024/03/18 10:58:43;;;;;;;7.87;6.73;;;14.80;89.40;;;;;;5086431;28;20898;-63
2024/03/18 11:01:11;;;;;;;9.47;7.43;;;14.80;73.00;;;;;;5085787;28;20457;-63
2024/03/18 11:03:45;;;;;;;9.43;7.00;;;14.70;99.90;;;;;;5083605;28;20761;-63
2024/03/18 11:06:16;;;;;;;12.57;6.57;;;14.70;99.90;;;;;;5083196;28;20536;-63
2024/03/18 11:08:43;;;;;;;11.23;6.80;;;14.70;99.90;;;;;;5085355;28;20461;-63
2024/03/18 11:11:16;;;;;;;8.17;5.70;;;14.40;67.60;;;;;;5082869;28;20495;-63
2024/03/18 11:13:45;;;;;;;8.30;6.50;;;14.50;99.90;;;;;;5082105;28;20493;-63
2024/03/18 11:16:14;;;;;;;7.40;5.90;;;14.80;99.90;;;;;;5081947;28;20913;-63
2024/03/18 11:18:45;;;;;;;7.53;5.83;;;15.20;99.90;;;;;;5081338;28;20902;-63
2024/03/18 11:21:21;;;;;;;7.40;5.20;;;15.30;99.90;;;;;;5081697;28;20461;-63
2024/03/18 11:24:00;;;;;;;6.00;5.20;;;15.50;79.80;;;;;;5081335;28;20530;-63
2024/03/18 11:26:28;;;;;;;6.73;5.07;;;15.80;99.90;;;;;;5080805;28;20547;-63
2024/03/18 11:29:05;;;;;;;6.57;4.70;;;16.00;99.90;;;;;;5081452;28;20526;-63
2024/03/18 11:31:38;;;;;;;8.03;4.87;;;15.90;99.90;;;;;;5078906;28;20514;-64
2024/03/18 11:34:07;;;;;;;7.63;4.43;;;15.90;71.00;;;;;;5079908;28;20750;-63
2024/03/18 11:36:38;;;;;;;7.43;5.20;;;16.00;1.00;;;;;;5080368;28;20568;-63
2024/03/18 11:39:12;;;;;;;6.67;4.40;;;15.80;1.00;;;;;;5081067;28;20754;-62
2024/03/18 11:41:39;;;;;;;6.67;5.00;;;15.70;13.30;;;;;;5078914;28;20739;-62
2024/03/18 11:44:11;;;;;;;5.43;4.63;;;15.50;9.90;;;;;;5078187;28;20779;-62
2024/03/18 11:46:39;;;;;;;6.80;4.43;;;15.40;12.40;;;;;;5078765;28;20485;-62
2024/03/18 11:49:07;;;;;;;6.00;4.20;;;15.10;23.30;;;;;;5078610;28;20846;-62
2024/03/18 11:51:35;;;;;;;7.03;5.03;;;14.90;1.00;;;;;;5078144;28;20453;-62
2024/03/18 11:54:06;;;;;;;6.83;4.90;;;14.70;1.00;;;;;;5078915;28;20489;-62
2024/03/18 11:56:34;;;;;;;7.93;4.60;;;14.50;1.00;;;;;;5079066;28;20555;-62
2024/03/18 11:59:02;;;;;;;10.53;4.83;;;14.40;1.00;;;;;;5079632;28;20461;-62
2024/03/18 12:01:33;;;;;;;6.63;4.60;;;14.10;1.00;;;;;;5078918;28;20461;-62
2024/03/18 12:04:00;;;;;;;5.00;3.93;;;14.50;1.00;;;;;;5078933;28;20461;-62
2024/03/18 12:06:29;;;;;;;7.33;4.53;;;15.30;1.00;;;;;;5078647;28;20787;-62
2024/03/18 12:08:57;;;;;;;8.87;4.30;;;15.60;99.90;;;;;;5078859;28;20501;-62
2024/03/18 12:11:24;;;;;;;6.80;4.97;;;15.50;42.20;;;;;;5078327;28;20457;-62
2024/03/18 12:13:51;;;;;;;8.23;4.73;;;15.20;1.00;;;;;;5077684;28;20461;-61
2024/03/18 12:16:19;;;;;;;7.60;4.00;;;15.10;1.00;;;;;;5078196;28;20457;-61
2024/03/18 12:18:48;;;;;;;9.00;4.77;;;15.10;1.00;;;;;;5077645;28;20918;-61
2024/03/18 12:21:16;;;;;;;7.67;4.47;;;15.10;1.00;;;;;;5078477;28;20457;-61
2024/03/18 12:29:23;;;;;;;6.07;4.03;;;15.40;1.00;;;;;;5097198;28;20436;-61
2024/03/18 12:31:52;;;;;;;9.00;4.60;;;15.60;1.00;;;;;;5098214;28;20460;-61
2024/03/18 12:34:21;;;;;;;4.73;3.40;;;15.50;1.00;;;;;;5097458;28;20457;-61
2024/03/18 12:36:48;;;;;;;5.70;3.80;;;15.40;99.90;;;;;;5097248;28;20940;-61
2024/03/18 12:39:18;;;;;;;6.20;4.13;;;15.40;99.90;;;;;;5098541;28;20509;-62
2024/03/18 12:41:46;;;;;;;5.30;4.17;;;15.30;99.90;;;;;;5097811;28;20514;-61
2024/03/18 12:44:14;;;;;;;5.63;3.30;;;15.30;99.90;;;;;;5083499;28;20462;-61
2024/03/18 12:46:41;;;;;;;5.03;3.27;;;15.40;99.90;;;;;;5075373;28;20493;-61
2024/03/18 12:49:09;;;;;;;8.67;3.90;;;15.30;99.90;;;;;;5075893;28;20461;-62
2024/03/18 12:51:39;;;;;;;8.30;4.07;;;15.10;1.00;;;;;;5075367;28;20510;-61